Time;durP1;ratioP1;P1;durP2;ratioP2;P2;SDS_P1;SDS_P2;PMS_P1;PMS_P2;Temp;Humidity;BMP_temperature;BMP_pressure;BME280_temperature;BME280_humidity;BME280_pressure;Samples;Min_cycle;Max_cycle;Signal;HPM_P1;HPM_P2
2023/05/07 00:00:21;;;;;;;12.93;7.10;;;13.70;99.90;;;;;;5005594;28;20038;-76
2023/05/07 00:02:47;;;;;;;14.35;6.82;;;13.70;99.90;;;;;;5004719;28;20388;-77
2023/05/07 00:05:14;;;;;;;14.48;7.70;;;13.60;99.90;;;;;;5005860;28;20050;-76
2023/05/07 00:07:40;;;;;;;12.07;6.82;;;13.70;99.90;;;;;;5005131;28;20096;-77
2023/05/07 00:10:06;;;;;;;14.15;7.32;;;13.60;99.90;;;;;;5003220;28;20046;-76
2023/05/07 00:12:35;;;;;;;13.25;6.63;;;13.60;99.90;;;;;;4986254;28;20043;-78
2023/05/07 00:15:05;;;;;;;13.48;7.03;;;13.60;99.90;;;;;;4986074;28;20061;-76
2023/05/07 00:17:31;;;;;;;11.48;6.88;;;13.60;99.90;;;;;;4985080;28;20042;-77
2023/05/07 00:19:56;;;;;;;14.38;7.25;;;13.60;99.90;;;;;;4986249;28;20073;-78
2023/05/07 00:22:22;;;;;;;13.75;7.15;;;13.50;99.90;;;;;;4986384;28;20043;-76
2023/05/07 00:24:47;;;;;;;11.05;6.30;;;13.60;99.90;;;;;;4985240;28;20042;-76
2023/05/07 00:27:13;;;;;;;12.30;6.60;;;13.50;99.90;;;;;;4984623;28;20129;-78
2023/05/07 00:29:39;;;;;;;12.80;7.45;;;13.50;99.90;;;;;;4984714;28;20043;-78
2023/05/07 00:32:05;;;;;;;11.77;6.53;;;13.50;99.90;;;;;;5000092;28;20045;-77
2023/05/07 00:34:30;;;;;;;11.82;6.15;;;13.50;99.90;;;;;;5003624;28;20065;-76
2023/05/07 00:36:56;;;;;;;11.18;6.68;;;13.50;99.90;;;;;;5004141;28;20079;-77
2023/05/07 00:39:21;;;;;;;12.25;6.43;;;13.50;99.90;;;;;;5005296;28;20431;-78
2023/05/07 00:41:47;;;;;;;15.68;7.30;;;13.50;99.90;;;;;;5004993;28;20045;-77
2023/05/07 00:44:14;;;;;;;13.02;6.55;;;13.50;99.90;;;;;;5004556;28;20125;-76
2023/05/07 00:46:40;;;;;;;14.60;6.55;;;13.50;99.90;;;;;;5004499;28;20043;-76
2023/05/07 00:49:06;;;;;;;13.55;6.53;;;13.40;99.90;;;;;;4986512;28;20046;-76
2023/05/07 00:51:33;;;;;;;15.73;8.60;;;13.40;99.90;;;;;;5004817;28;20048;-78
2023/05/07 00:54:00;;;;;;;12.75;7.07;;;13.40;99.90;;;;;;5003312;28;20058;-77
2023/05/07 00:56:26;;;;;;;12.65;6.97;;;13.40;99.90;;;;;;5003871;28;20057;-78
2023/05/07 00:58:52;;;;;;;10.90;6.75;;;13.40;99.90;;;;;;5005358;28;20089;-78
2023/05/07 01:01:18;;;;;;;14.80;7.25;;;13.40;99.90;;;;;;5004810;28;20459;-77
2023/05/07 01:03:44;;;;;;;13.60;6.53;;;13.40;99.90;;;;;;5001714;28;20050;-77
2023/05/07 01:06:12;;;;;;;15.05;7.40;;;13.40;99.90;;;;;;5001174;28;20050;-75
2023/05/07 01:08:39;;;;;;;15.25;7.15;;;13.40;99.90;;;;;;4984089;28;20133;-77
2023/05/07 01:11:06;;;;;;;17.20;6.53;;;13.40;99.90;;;;;;4993251;28;20065;-75
2023/05/07 01:13:33;;;;;;;17.02;7.50;;;13.30;99.90;;;;;;5034141;23;1080803;-77
2023/05/07 01:15:59;;;;;;;14.70;7.28;;;13.40;99.90;;;;;;4985301;28;20049;-77
2023/05/07 01:18:25;;;;;;;14.05;6.95;;;13.30;99.90;;;;;;4983327;28;20046;-77
2023/05/07 01:20:52;;;;;;;13.50;6.45;;;13.30;99.90;;;;;;4985892;28;20086;-75
2023/05/07 01:23:18;;;;;;;13.77;6.32;;;13.30;99.90;;;;;;4985190;28;20081;-77
2023/05/07 01:25:51;;;;;;;15.93;7.18;;;13.30;99.90;;;;;;4984565;28;20092;-75
2023/05/07 01:28:16;;;;;;;11.52;6.88;;;13.30;99.90;;;;;;4985119;28;20042;-75
2023/05/07 01:30:46;;;;;;;13.75;6.18;;;13.20;99.90;;;;;;4983695;28;20054;-76
2023/05/07 01:33:15;;;;;;;13.85;6.53;;;13.20;99.90;;;;;;4983364;28;20463;-74
2023/05/07 01:35:45;;;;;;;13.52;7.40;;;13.20;99.90;;;;;;4983357;28;20062;-77
2023/05/07 01:38:12;;;;;;;10.88;6.35;;;13.20;99.90;;;;;;4984467;28;20050;-76
2023/05/07 01:40:38;;;;;;;14.23;7.55;;;13.20;99.90;;;;;;4983369;28;20054;-77
2023/05/07 01:43:04;;;;;;;9.38;6.25;;;13.20;99.90;;;;;;4984886;28;20042;-79
2023/05/07 01:45:31;;;;;;;14.73;7.35;;;13.20;99.90;;;;;;4984073;28;20050;-80
2023/05/07 01:47:58;;;;;;;12.65;6.38;;;13.20;99.90;;;;;;4981699;28;20699;-80
2023/05/07 01:50:25;;;;;;;12.48;6.32;;;13.20;99.90;;;;;;4984300;28;20665;-81
2023/05/07 01:52:51;;;;;;;12.73;6.03;;;13.20;99.90;;;;;;4984774;28;20045;-81
2023/05/07 01:55:17;;;;;;;12.13;6.93;;;13.10;99.90;;;;;;4984470;28;20053;-79
2023/05/07 01:57:43;;;;;;;14.80;6.32;;;13.10;99.90;;;;;;4983040;28;20066;-79
2023/05/07 02:00:09;;;;;;;16.88;8.98;;;13.10;99.90;;;;;;4983338;28;20068;-80
2023/05/07 02:02:35;;;;;;;13.90;6.57;;;13.10;99.90;;;;;;4983473;28;20374;-80
2023/05/07 02:05:01;;;;;;;16.35;8.43;;;13.10;99.90;;;;;;4983928;28;20052;-78
2023/05/07 02:07:27;;;;;;;18.02;8.10;;;13.10;99.90;;;;;;4982020;28;20038;-79
2023/05/07 02:09:53;;;;;;;14.73;6.72;;;13.10;99.90;;;;;;4984072;28;20050;-80
2023/05/07 02:12:19;;;;;;;15.27;8.05;;;13.10;99.90;;;;;;4987907;28;20050;-79
2023/05/07 02:14:44;;;;;;;16.42;8.10;;;13.10;99.90;;;;;;4983587;28;20064;-78
2023/05/07 02:17:10;;;;;;;13.15;7.95;;;13.00;99.90;;;;;;4983003;28;20046;-79
2023/05/07 02:19:35;;;;;;;14.77;8.23;;;13.00;99.90;;;;;;4982381;28;20052;-79
2023/05/07 02:22:01;;;;;;;17.60;8.68;;;13.00;99.90;;;;;;4984024;28;20558;-81
2023/05/07 02:24:26;;;;;;;18.13;8.43;;;13.00;99.90;;;;;;4982180;28;20519;-78
2023/05/07 02:26:52;;;;;;;15.65;8.15;;;13.00;99.90;;;;;;4984207;28;20397;-80
2023/05/07 02:29:17;;;;;;;12.85;7.35;;;13.00;99.90;;;;;;4981987;28;20054;-80
2023/05/07 02:31:43;;;;;;;16.92;8.20;;;13.00;99.90;;;;;;4966449;28;20042;-81
2023/05/07 02:34:09;;;;;;;15.45;8.05;;;13.00;99.90;;;;;;4982503;28;20536;-78
2023/05/07 02:36:34;;;;;;;15.60;8.27;;;12.90;99.90;;;;;;4983102;28;20038;-79
2023/05/07 02:39:00;;;;;;;14.65;8.70;;;12.90;99.90;;;;;;4984068;28;20082;-79
2023/05/07 02:41:27;;;;;;;16.17;9.10;;;12.90;99.90;;;;;;4982175;28;20093;-79
2023/05/07 02:43:53;;;;;;;22.33;9.75;;;12.90;99.90;;;;;;4984077;28;20466;-79
2023/05/07 02:46:19;;;;;;;16.70;8.35;;;12.90;99.90;;;;;;4983717;28;20069;-78
2023/05/07 02:48:44;;;;;;;15.25;9.15;;;12.90;99.90;;;;;;4981501;28;20054;-81
2023/05/07 02:51:10;;;;;;;18.80;8.88;;;12.90;99.90;;;;;;4982287;28;20078;-80
2023/05/07 02:53:35;;;;;;;14.32;7.90;;;12.80;99.90;;;;;;4981918;28;20520;-80
2023/05/07 02:56:02;;;;;;;20.23;9.63;;;12.80;99.90;;;;;;4984522;28;20555;-78
2023/05/07 02:58:28;;;;;;;16.95;8.18;;;12.80;99.90;;;;;;4987378;28;20382;-79
2023/05/07 03:00:57;;;;;;;16.27;8.40;;;12.80;99.90;;;;;;4988033;28;20065;-80
2023/05/07 03:03:22;;;;;;;15.40;8.32;;;12.80;99.90;;;;;;4969384;28;20093;-78
2023/05/07 03:05:48;;;;;;;16.88;9.45;;;12.80;99.90;;;;;;4985798;28;20539;-78
2023/05/07 03:08:14;;;;;;;20.17;9.18;;;12.70;99.90;;;;;;4987245;28;20043;-80
2023/05/07 03:10:39;;;;;;;17.83;8.25;;;12.80;99.90;;;;;;4994359;28;20052;-77
2023/05/07 03:13:05;;;;;;;17.13;8.63;;;12.70;99.90;;;;;;4989229;28;20419;-79
2023/05/07 03:15:31;;;;;;;19.23;8.43;;;12.70;99.90;;;;;;5006443;28;20050;-78
2023/05/07 03:17:56;;;;;;;17.60;9.63;;;12.70;99.90;;;;;;5004699;28;20041;-79
2023/05/07 03:20:22;;;;;;;19.42;9.48;;;12.70;99.90;;;;;;5006967;28;20053;-80
2023/05/07 03:22:48;;;;;;;19.48;9.27;;;12.70;99.90;;;;;;4986883;28;20042;-79
2023/05/07 03:25:14;;;;;;;16.13;8.45;;;12.60;99.90;;;;;;4986557;28;20046;-79
2023/05/07 03:27:41;;;;;;;19.05;9.20;;;12.70;99.90;;;;;;4986999;28;20053;-80
2023/05/07 03:30:08;;;;;;;18.70;9.65;;;12.60;99.90;;;;;;4985879;28;20054;-79
2023/05/07 03:32:35;;;;;;;19.90;9.02;;;12.60;99.90;;;;;;4985489;28;20685;-79
2023/05/07 03:35:01;;;;;;;20.27;9.98;;;12.60;99.90;;;;;;4986670;28;20116;-79
2023/05/07 03:37:26;;;;;;;17.00;9.23;;;12.60;99.90;;;;;;4985059;28;20093;-80
2023/05/07 03:39:52;;;;;;;16.73;9.35;;;12.60;99.90;;;;;;4987311;28;20427;-80
2023/05/07 03:42:17;;;;;;;15.43;8.30;;;12.60;99.90;;;;;;4994584;28;20039;-79
2023/05/07 03:44:43;;;;;;;21.92;8.75;;;12.60;99.90;;;;;;4967071;28;20054;-79
2023/05/07 03:47:10;;;;;;;16.25;8.05;;;12.50;99.90;;;;;;4966472;28;20481;-80
2023/05/07 03:49:35;;;;;;;20.60;10.00;;;12.50;99.90;;;;;;4953027;28;20136;-80
2023/05/07 03:52:01;;;;;;;18.95;8.73;;;12.50;99.90;;;;;;4985138;28;20489;-78
2023/05/07 03:54:26;;;;;;;18.15;9.60;;;12.50;99.90;;;;;;4986122;28;20125;-78
2023/05/07 03:56:52;;;;;;;21.25;9.38;;;12.50;99.90;;;;;;4986859;28;20473;-80
2023/05/07 03:59:18;;;;;;;17.10;9.30;;;12.50;99.90;;;;;;4986474;28;20078;-80
2023/05/07 04:01:43;;;;;;;19.83;9.65;;;12.50;99.90;;;;;;4984474;28;20170;-79
2023/05/07 04:04:09;;;;;;;19.63;10.23;;;12.40;99.90;;;;;;4985683;28;20049;-79
2023/05/07 04:06:34;;;;;;;16.58;8.55;;;12.40;99.90;;;;;;4985625;28;20045;-80
2023/05/07 04:09:00;;;;;;;16.73;9.32;;;12.40;99.90;;;;;;4986277;28;20404;-79
2023/05/07 04:11:26;;;;;;;16.55;9.20;;;12.40;99.90;;;;;;4995471;28;20038;-78
2023/05/07 04:13:52;;;;;;;19.02;9.77;;;12.40;99.90;;;;;;4985010;28;20065;-77
2023/05/07 04:16:18;;;;;;;19.63;10.27;;;12.40;99.90;;;;;;4984929;28;20050;-80
2023/05/07 04:18:43;;;;;;;18.60;9.38;;;12.30;99.90;;;;;;4983597;28;20048;-80
2023/05/07 04:21:16;;;;;;;21.55;9.85;;;12.30;99.90;;;;;;4984665;28;20050;-77
2023/05/07 04:23:42;;;;;;;18.58;9.43;;;12.30;99.90;;;;;;4985577;28;20137;-80
2023/05/07 04:26:08;;;;;;;19.77;9.52;;;12.30;99.90;;;;;;4985885;28;20113;-79
2023/05/07 04:28:34;;;;;;;18.88;8.73;;;12.30;99.90;;;;;;4964968;28;20042;-80
2023/05/07 04:31:00;;;;;;;21.08;9.00;;;12.30;99.90;;;;;;4984928;28;20050;-78
2023/05/07 04:33:25;;;;;;;22.42;11.05;;;12.30;99.90;;;;;;4983449;28;20606;-78
2023/05/07 04:35:51;;;;;;;26.20;12.13;;;12.30;99.90;;;;;;4986129;28;20501;-81
2023/05/07 04:38:18;;;;;;;17.08;9.27;;;12.20;99.90;;;;;;4984081;28;20046;-77
2023/05/07 04:40:44;;;;;;;23.83;10.75;;;12.20;99.90;;;;;;4985424;28;20124;-78
2023/05/07 04:43:10;;;;;;;15.65;9.90;;;12.20;99.90;;;;;;4985228;28;20034;-81
2023/05/07 04:45:36;;;;;;;21.40;10.43;;;12.20;99.90;;;;;;4985765;28;20180;-80
2023/05/07 04:48:02;;;;;;;26.23;11.25;;;12.30;99.90;;;;;;4984444;28;20046;-78
2023/05/07 04:50:27;;;;;;;19.80;9.77;;;12.20;99.90;;;;;;4987107;28;20046;-78
2023/05/07 04:52:53;;;;;;;21.83;10.80;;;12.20;99.90;;;;;;4982185;28;20039;-79
2023/05/07 04:55:18;;;;;;;22.92;10.95;;;12.20;99.90;;;;;;4985616;28;20034;-77
2023/05/07 04:57:45;;;;;;;22.00;10.90;;;12.20;99.90;;;;;;4985161;28;20046;-78
2023/05/07 05:00:14;;;;;;;28.35;11.05;;;12.20;99.90;;;;;;4984271;28;20054;-78
2023/05/07 05:02:40;;;;;;;24.42;9.93;;;12.20;99.90;;;;;;4982867;28;20132;-79
2023/05/07 05:05:06;;;;;;;22.98;10.65;;;12.20;99.90;;;;;;4985294;28;20057;-78
2023/05/07 05:07:31;;;;;;;21.60;10.57;;;12.20;99.90;;;;;;4999458;28;20202;-79
2023/05/07 05:09:57;;;;;;;21.00;10.93;;;12.20;99.90;;;;;;4983830;28;20408;-78
2023/05/07 05:12:23;;;;;;;22.05;11.55;;;12.20;99.90;;;;;;4984364;28;20111;-80
2023/05/07 05:14:48;;;;;;;22.00;10.05;;;12.20;99.90;;;;;;4984470;28;20076;-80
2023/05/07 05:17:14;;;;;;;26.27;12.95;;;12.20;99.90;;;;;;4984136;28;20055;-79
2023/05/07 05:19:39;;;;;;;22.10;10.70;;;12.20;99.90;;;;;;4983706;28;20460;-78
2023/05/07 05:22:05;;;;;;;26.15;12.70;;;12.20;99.90;;;;;;4984929;28;20093;-79
2023/05/07 05:24:31;;;;;;;23.75;11.00;;;12.20;99.90;;;;;;4984584;28;20042;-79
2023/05/07 05:26:57;;;;;;;23.02;10.30;;;12.20;99.90;;;;;;4983802;28;20054;-77
2023/05/07 05:29:22;;;;;;;20.23;10.10;;;12.20;99.90;;;;;;4984525;28;20069;-77
2023/05/07 05:31:48;;;;;;;23.67;11.73;;;12.20;99.90;;;;;;4983540;28;20503;-79
2023/05/07 05:34:13;;;;;;;27.17;12.70;;;12.20;99.90;;;;;;4983831;28;20181;-79
2023/05/07 05:36:39;;;;;;;22.33;11.30;;;12.20;99.90;;;;;;4984537;28;20092;-79
2023/05/07 05:39:05;;;;;;;22.38;12.00;;;12.20;99.90;;;;;;4982518;28;20128;-78
2023/05/07 05:41:31;;;;;;;27.10;12.43;;;12.10;99.90;;;;;;4983625;28;20053;-80
2023/05/07 05:43:57;;;;;;;22.52;13.43;;;12.20;99.90;;;;;;4984957;28;20392;-79
2023/05/07 05:46:22;;;;;;;24.77;11.95;;;12.20;99.90;;;;;;4982829;28;20078;-80
2023/05/07 05:48:48;;;;;;;25.30;12.15;;;12.20;99.90;;;;;;4983635;28;20040;-79
2023/05/07 05:51:13;;;;;;;28.08;12.38;;;12.20;99.90;;;;;;4982757;28;20499;-78
2023/05/07 05:53:39;;;;;;;29.42;12.02;;;12.20;99.90;;;;;;4983719;28;20743;-80
2023/05/07 05:56:05;;;;;;;27.85;11.57;;;12.20;99.90;;;;;;4984099;28;20042;-80
2023/05/07 05:58:30;;;;;;;23.58;11.48;;;12.20;99.90;;;;;;4982102;28;20145;-78
2023/05/07 06:00:56;;;;;;;27.10;10.82;;;12.20;99.90;;;;;;4982192;28;20062;-77
2023/05/07 06:03:22;;;;;;;24.08;10.68;;;12.20;99.90;;;;;;4983303;28;20057;-80
2023/05/07 06:05:47;;;;;;;25.33;11.93;;;12.20;99.90;;;;;;4983837;28;20049;-79
2023/05/07 06:08:13;;;;;;;26.00;12.23;;;12.20;99.90;;;;;;4983717;28;20406;-77
2023/05/07 06:10:39;;;;;;;22.05;11.18;;;12.20;99.90;;;;;;4984631;28;20067;-79
2023/05/07 06:13:05;;;;;;;27.10;12.13;;;12.20;99.90;;;;;;4983477;28;20068;-80
2023/05/07 06:15:30;;;;;;;26.60;13.32;;;12.20;99.90;;;;;;4983782;28;20050;-80
2023/05/07 06:17:57;;;;;;;22.73;11.15;;;12.20;99.90;;;;;;4965705;28;20051;-80
2023/05/07 06:20:23;;;;;;;23.20;10.70;;;12.20;99.90;;;;;;4983842;28;20516;-78
2023/05/07 06:22:48;;;;;;;25.73;11.60;;;12.30;99.90;;;;;;4983828;28;20113;-80
2023/05/07 06:25:14;;;;;;;24.25;11.95;;;12.30;99.90;;;;;;4983925;28;20481;-77
2023/05/07 06:27:40;;;;;;;28.38;12.95;;;12.30;99.90;;;;;;4983390;28;20548;-80
2023/05/07 06:30:06;;;;;;;26.08;11.93;;;12.30;99.90;;;;;;4983715;28;20050;-79
2023/05/07 06:32:32;;;;;;;24.55;11.40;;;12.40;99.90;;;;;;4993155;28;20049;-80
2023/05/07 06:34:58;;;;;;;23.80;11.38;;;12.40;99.90;;;;;;4978433;28;20112;-79
2023/05/07 06:37:23;;;;;;;30.25;11.40;;;12.40;99.90;;;;;;4982736;28;20485;-79
2023/05/07 06:39:49;;;;;;;29.10;11.88;;;12.40;99.90;;;;;;4981571;28;20105;-79
2023/05/07 06:42:15;;;;;;;30.83;11.80;;;12.40;99.90;;;;;;4982449;28;20397;-79
2023/05/07 06:44:40;;;;;;;25.73;12.18;;;12.50;99.90;;;;;;4983240;28;20054;-80
2023/05/07 06:47:06;;;;;;;27.85;13.50;;;12.50;99.90;;;;;;4981359;28;20046;-80
2023/05/07 06:49:32;;;;;;;22.30;11.63;;;12.50;99.90;;;;;;4983414;28;20042;-79
2023/05/07 06:51:58;;;;;;;23.38;11.60;;;12.50;99.90;;;;;;4981976;28;20049;-77
2023/05/07 06:54:23;;;;;;;27.15;11.35;;;12.50;99.90;;;;;;4983887;28;20050;-80
2023/05/07 06:56:49;;;;;;;25.63;12.90;;;12.60;99.90;;;;;;4982097;28;20499;-77
2023/05/07 06:59:15;;;;;;;22.33;11.77;;;12.60;99.90;;;;;;4982176;28;20046;-80
2023/05/07 07:01:41;;;;;;;24.58;10.10;;;12.60;99.90;;;;;;4981174;28;20056;-78
2023/05/07 07:04:06;;;;;;;17.63;9.95;;;12.60;99.90;;;;;;4981637;28;20042;-80
2023/05/07 07:06:32;;;;;;;26.35;10.10;;;12.60;99.90;;;;;;4982905;28;20097;-83
2023/05/07 07:08:58;;;;;;;21.65;10.32;;;12.70;99.90;;;;;;4981744;28;20096;-81
2023/05/07 07:11:24;;;;;;;22.05;10.23;;;12.70;99.90;;;;;;4992882;28;20034;-78
2023/05/07 07:13:50;;;;;;;19.63;11.25;;;12.70;99.90;;;;;;4981243;28;20059;-79
2023/05/07 07:16:16;;;;;;;19.40;10.18;;;12.70;99.90;;;;;;4981966;28;20050;-80
2023/05/07 07:18:42;;;;;;;23.45;10.30;;;12.70;99.90;;;;;;4983189;28;20061;-79
2023/05/07 07:21:08;;;;;;;23.73;10.82;;;12.70;99.90;;;;;;4982527;28;20046;-78
2023/05/07 07:23:33;;;;;;;20.33;10.07;;;12.80;99.90;;;;;;5000882;28;20096;-80
2023/05/07 07:25:59;;;;;;;22.67;11.07;;;12.80;99.90;;;;;;4989366;28;20458;-78
2023/05/07 07:28:24;;;;;;;27.85;13.27;;;12.80;99.90;;;;;;4983745;28;20097;-80
2023/05/07 07:30:50;;;;;;;27.08;12.32;;;12.90;99.90;;;;;;4984291;28;20039;-79
2023/05/07 07:33:16;;;;;;;20.55;11.10;;;12.90;99.90;;;;;;4981244;28;20046;-78
2023/05/07 07:35:42;;;;;;;25.17;9.38;;;13.00;99.90;;;;;;4993767;28;20030;-80
2023/05/07 07:38:07;;;;;;;23.13;10.52;;;13.00;99.90;;;;;;4984627;28;20096;-83
2023/05/07 07:40:35;;;;;;;19.25;9.68;;;13.00;99.90;;;;;;4981195;28;20137;-77
2023/05/07 07:43:01;;;;;;;21.67;10.85;;;13.00;99.90;;;;;;4983369;28;20038;-78
2023/05/07 07:45:26;;;;;;;24.83;9.95;;;13.10;99.90;;;;;;4986598;28;20046;-83
2023/05/07 07:47:52;;;;;;;24.33;10.95;;;13.10;99.90;;;;;;4986622;28;20481;-77
2023/05/07 07:50:18;;;;;;;23.88;10.90;;;13.10;99.90;;;;;;4968584;28;20045;-77
2023/05/07 07:52:44;;;;;;;19.67;10.13;;;13.20;99.90;;;;;;4993898;28;20169;-76
2023/05/07 07:55:10;;;;;;;23.70;10.23;;;13.20;99.90;;;;;;4992472;28;20667;-78
2023/05/07 07:57:35;;;;;;;20.73;9.85;;;13.20;99.90;;;;;;4985059;28;20070;-79
2023/05/07 08:00:01;;;;;;;21.13;9.70;;;13.20;99.90;;;;;;4988759;28;20054;-78
2023/05/07 08:02:27;;;;;;;21.73;12.73;;;13.30;99.90;;;;;;4983403;28;20042;-77
2023/05/07 08:04:52;;;;;;;17.63;10.18;;;13.30;99.90;;;;;;4988055;28;20524;-77
2023/05/07 08:07:20;;;;;;;18.60;10.20;;;13.30;99.90;;;;;;4988943;28;20113;-79
2023/05/07 08:09:46;;;;;;;24.33;9.68;;;13.30;99.90;;;;;;4986414;28;20432;-76
2023/05/07 08:12:12;;;;;;;23.50;9.98;;;13.30;99.90;;;;;;4987631;28;20092;-76
2023/05/07 08:14:37;;;;;;;20.20;10.18;;;13.30;99.90;;;;;;4985537;28;20133;-78
2023/05/07 08:17:03;;;;;;;21.52;9.98;;;13.40;99.90;;;;;;4983781;28;20046;-78
2023/05/07 08:19:29;;;;;;;22.35;10.43;;;13.50;99.90;;;;;;4979466;28;20053;-77
2023/05/07 08:21:55;;;;;;;20.27;9.70;;;13.50;99.90;;;;;;4983803;28;20054;-78
2023/05/07 08:24:21;;;;;;;18.27;8.95;;;13.50;99.90;;;;;;4985181;28;20097;-79
2023/05/07 08:26:46;;;;;;;19.10;9.35;;;13.50;99.90;;;;;;4980992;28;20046;-80
2023/05/07 08:29:12;;;;;;;15.93;9.05;;;13.60;99.90;;;;;;4988035;28;20053;-78
2023/05/07 08:31:41;;;;;;;16.23;9.60;;;13.60;99.90;;;;;;4984696;28;20548;-78
2023/05/07 08:34:06;;;;;;;16.63;9.40;;;13.60;99.90;;;;;;4967890;28;20540;-83
2023/05/07 08:36:32;;;;;;;19.65;9.20;;;13.60;99.90;;;;;;4985017;28;20088;-80
2023/05/07 08:38:59;;;;;;;21.98;11.02;;;13.70;99.90;;;;;;4984344;28;20051;-78
2023/05/07 08:41:24;;;;;;;19.80;9.85;;;13.80;99.90;;;;;;4985230;28;20084;-79
2023/05/07 08:43:51;;;;;;;18.75;9.13;;;13.90;99.90;;;;;;4982635;28;20482;-76
2023/05/07 08:46:19;;;;;;;22.83;10.95;;;13.90;99.90;;;;;;4980084;28;20053;-80
2023/05/07 08:48:45;;;;;;;22.83;10.02;;;13.90;99.90;;;;;;4985818;28;20054;-78
2023/05/07 08:51:18;;;;;;;17.52;11.15;;;14.00;99.90;;;;;;4985552;28;20039;-76
2023/05/07 08:53:45;;;;;;;21.60;10.35;;;14.00;99.90;;;;;;4983694;28;20038;-78
2023/05/07 08:56:11;;;;;;;21.05;9.63;;;14.00;99.90;;;;;;4984280;28;20062;-78
2023/05/07 08:58:37;;;;;;;19.08;9.18;;;14.00;99.90;;;;;;4968000;28;20056;-79
2023/05/07 09:01:07;;;;;;;23.55;11.10;;;14.10;99.90;;;;;;4983246;28;20484;-86
2023/05/07 09:03:33;;;;;;;18.20;8.40;;;14.10;99.90;;;;;;4983064;28;20039;-79
2023/05/07 09:05:59;;;;;;;21.95;10.80;;;14.10;99.90;;;;;;4983981;28;20710;-75
2023/05/07 09:08:26;;;;;;;24.45;11.68;;;14.10;99.90;;;;;;4981753;28;20037;-79
2023/05/07 09:10:52;;;;;;;20.20;9.60;;;14.10;99.90;;;;;;4992924;28;20046;-78
2023/05/07 09:13:18;;;;;;;20.30;9.57;;;14.10;99.90;;;;;;5003156;28;20129;-78
2023/05/07 09:15:43;;;;;;;17.77;9.98;;;14.10;99.90;;;;;;4987473;28;20053;-75
2023/05/07 09:18:09;;;;;;;21.90;11.35;;;14.10;99.90;;;;;;4983986;28;20044;-79
2023/05/07 09:20:36;;;;;;;18.73;10.48;;;14.10;99.90;;;;;;4984584;28;20402;-79
2023/05/07 09:23:02;;;;;;;21.15;9.88;;;14.10;99.90;;;;;;4984372;28;20070;-79
2023/05/07 09:25:32;;;;;;;21.35;11.32;;;14.20;99.90;;;;;;4985441;28;20089;-79
2023/05/07 09:27:58;;;;;;;16.80;9.52;;;14.20;99.90;;;;;;4991799;28;20050;-82
2023/05/07 09:30:29;;;;;;;22.20;10.10;;;14.20;99.90;;;;;;4991178;28;20121;-79
2023/05/07 09:32:54;;;;;;;18.65;10.18;;;14.30;99.90;;;;;;4982038;28;20050;-79
2023/05/07 09:35:29;;;;;;;20.73;10.23;;;14.20;99.90;;;;;;4981971;28;20034;-78
2023/05/07 09:37:56;;;;;;;22.83;9.38;;;14.30;99.90;;;;;;4982549;28;20386;-78
2023/05/07 09:40:27;;;;;;;20.58;9.73;;;14.40;99.90;;;;;;4991549;28;20128;-78
2023/05/07 09:42:53;;;;;;;18.98;9.32;;;14.40;99.90;;;;;;4983575;28;20042;-80
2023/05/07 09:45:22;;;;;;;20.77;10.32;;;14.40;99.90;;;;;;4982038;28;20492;-80
2023/05/07 09:47:49;;;;;;;21.83;10.60;;;14.50;99.90;;;;;;4980731;28;20055;-76
2023/05/07 09:50:16;;;;;;;23.42;11.40;;;14.50;99.90;;;;;;4996565;28;20054;-78
2023/05/07 09:52:43;;;;;;;23.17;10.55;;;14.60;99.90;;;;;;4980298;28;20050;-78
2023/05/07 09:55:10;;;;;;;21.98;10.98;;;14.70;99.90;;;;;;4982905;28;20121;-77
2023/05/07 09:57:37;;;;;;;19.80;10.25;;;14.70;99.90;;;;;;4982893;28;20034;-77
2023/05/07 10:00:08;;;;;;;18.92;10.05;;;14.80;99.90;;;;;;4991797;28;20045;-78
2023/05/07 10:02:36;;;;;;;21.80;10.85;;;14.80;99.90;;;;;;4986205;28;20675;-77
2023/05/07 10:05:03;;;;;;;21.92;9.63;;;14.90;99.90;;;;;;4991189;28;20053;-79
2023/05/07 10:07:29;;;;;;;26.98;10.13;;;14.90;99.90;;;;;;4982373;28;20039;-78
2023/05/07 10:09:56;;;;;;;20.23;10.23;;;15.00;99.90;;;;;;4972497;28;20607;-77
2023/05/07 10:12:21;;;;;;;21.02;10.50;;;15.00;99.90;;;;;;4986733;28;20034;-77
2023/05/07 10:14:48;;;;;;;25.10;10.80;;;15.00;99.90;;;;;;4982006;28;20089;-78
2023/05/07 10:17:16;;;;;;;19.00;10.15;;;15.10;99.90;;;;;;4982674;28;20528;-76
2023/05/07 10:19:44;;;;;;;21.85;10.10;;;15.10;99.90;;;;;;4966406;28;20077;-78
2023/05/07 10:22:11;;;;;;;19.83;10.55;;;15.10;99.90;;;;;;4983047;28;20050;-78
2023/05/07 10:24:37;;;;;;;20.38;10.38;;;15.20;99.90;;;;;;4983211;28;20129;-78
2023/05/07 10:27:08;;;;;;;19.88;9.13;;;15.20;99.90;;;;;;4983652;28;20065;-77
2023/05/07 10:29:50;;;;;;;21.58;11.20;;;15.20;99.90;;;;;;4993171;28;20126;-78
2023/05/07 10:32:46;;;;;;;22.40;11.73;;;15.20;99.90;;;;;;4961931;28;20571;-79
2023/05/07 10:35:19;;;;;;;25.65;10.77;;;15.20;99.90;;;;;;4981460;28;20093;-80
2023/05/07 10:37:45;;;;;;;21.13;10.52;;;15.30;99.90;;;;;;4983117;28;20049;-81
2023/05/07 10:40:12;;;;;;;24.30;10.73;;;15.20;99.90;;;;;;4982703;28;20514;-81
2023/05/07 10:42:37;;;;;;;20.65;11.10;;;15.30;99.90;;;;;;4982283;28;20046;-79
2023/05/07 10:45:16;;;;;;;22.00;10.95;;;15.40;99.90;;;;;;4984662;28;20607;-81
2023/05/07 10:48:11;;;;;;;19.42;10.30;;;15.40;99.90;;;;;;4983059;28;20058;-78
2023/05/07 10:50:38;;;;;;;24.42;10.18;;;15.40;99.90;;;;;;4978152;28;20133;-80
2023/05/07 10:53:19;;;;;;;25.08;10.88;;;15.40;99.90;;;;;;4983206;28;20085;-80
2023/05/07 10:55:45;;;;;;;19.23;10.52;;;15.40;99.90;;;;;;4983165;28;20046;-80
2023/05/07 10:58:25;;;;;;;21.45;9.13;;;15.40;99.90;;;;;;4979544;28;20053;-78
2023/05/07 11:00:55;;;;;;;18.20;9.48;;;15.40;99.90;;;;;;5000923;28;20054;-81
2023/05/07 11:03:22;;;;;;;19.45;9.52;;;15.50;99.90;;;;;;4998974;28;20065;-78
2023/05/07 11:06:07;;;;;;;22.95;10.05;;;15.50;99.90;;;;;;4981418;28;20047;-78
2023/05/07 11:08:52;;;;;;;22.33;10.25;;;15.50;99.90;;;;;;4982621;28;20034;-78
2023/05/07 11:11:17;;;;;;;19.23;9.70;;;15.60;99.90;;;;;;4982433;28;20054;-78
2023/05/07 11:13:45;;;;;;;20.77;10.32;;;15.60;99.90;;;;;;4982558;28;20061;-78
2023/05/07 11:16:24;;;;;;;22.05;10.63;;;15.60;99.90;;;;;;4982447;28;20038;-78
2023/05/07 11:18:52;;;;;;;19.70;10.23;;;15.70;99.90;;;;;;4985537;28;20065;-77
2023/05/07 11:21:38;;;;;;;17.45;9.38;;;15.70;99.90;;;;;;4986298;28;20129;-78
2023/05/07 11:24:05;;;;;;;21.30;10.63;;;15.80;99.90;;;;;;4972783;28;20082;-79
2023/05/07 11:26:42;;;;;;;16.92;8.52;;;15.80;99.90;;;;;;4967454;28;20047;-78
2023/05/07 11:29:18;;;;;;;17.75;9.43;;;15.80;99.90;;;;;;4977209;28;20046;-78
2023/05/07 11:31:44;;;;;;;18.85;10.02;;;15.90;99.90;;;;;;4965756;28;20047;-78
2023/05/07 11:34:10;;;;;;;18.67;9.80;;;15.90;99.90;;;;;;4971577;28;20041;-79
2023/05/07 11:36:43;;;;;;;19.63;9.55;;;16.00;99.90;;;;;;4986244;28;20038;-78
2023/05/07 11:39:27;;;;;;;22.25;10.55;;;16.00;99.90;;;;;;4986362;28;20061;-81
2023/05/07 11:41:52;;;;;;;27.00;12.15;;;16.00;99.90;;;;;;4984670;28;20042;-77
2023/05/07 11:44:18;;;;;;;21.77;10.02;;;16.10;99.90;;;;;;4985613;28;20468;-79
2023/05/07 11:46:45;;;;;;;24.23;12.07;;;16.10;99.90;;;;;;4985199;28;20521;-79
2023/05/07 11:49:10;;;;;;;21.40;10.30;;;16.10;99.90;;;;;;4985032;28;20441;-78
2023/05/07 11:51:36;;;;;;;20.83;10.40;;;16.10;99.90;;;;;;4985993;28;20049;-78
2023/05/07 11:54:04;;;;;;;20.25;11.02;;;16.10;99.90;;;;;;4984893;28;20061;-78
2023/05/07 11:56:33;;;;;;;19.58;10.00;;;16.20;99.90;;;;;;4984614;28;20042;-78
2023/05/07 11:58:59;;;;;;;23.80;9.95;;;16.20;99.90;;;;;;4986080;28;20132;-80
2023/05/07 12:01:24;;;;;;;19.83;10.35;;;16.20;99.90;;;;;;4985442;28;20126;-80
2023/05/07 12:03:50;;;;;;;20.23;10.38;;;16.20;99.90;;;;;;4984406;28;20533;-79
2023/05/07 12:06:17;;;;;;;17.10;9.20;;;16.30;99.90;;;;;;4986110;28;20046;-80
2023/05/07 12:08:43;;;;;;;21.05;10.20;;;16.30;99.90;;;;;;4984573;28;20133;-80
2023/05/07 12:11:25;;;;;;;21.17;10.25;;;16.30;99.90;;;;;;4985734;28;20440;-79
2023/05/07 12:13:53;;;;;;;21.52;10.73;;;16.30;99.90;;;;;;4968578;28;20071;-79
2023/05/07 12:16:19;;;;;;;21.13;9.85;;;16.30;99.90;;;;;;4984449;28;20054;-78
2023/05/07 12:18:46;;;;;;;18.95;9.70;;;16.30;99.90;;;;;;4978456;28;20034;-78
2023/05/07 12:21:12;;;;;;;18.08;9.60;;;16.30;99.90;;;;;;4983986;28;20155;-78
2023/05/07 12:23:38;;;;;;;19.88;10.43;;;16.30;99.90;;;;;;4985094;28;20539;-77
2023/05/07 12:26:04;;;;;;;18.13;10.50;;;16.30;99.90;;;;;;4984071;28;20060;-80
2023/05/07 12:28:38;;;;;;;18.77;9.15;;;16.40;99.90;;;;;;4967681;28;20057;-79
2023/05/07 12:31:05;;;;;;;21.65;10.57;;;16.50;99.90;;;;;;4982655;28;20046;-78